Time;durP1;ratioP1;P1;durP2;ratioP2;P2;SDS_P1;SDS_P2;PMS_P1;PMS_P2;Temp;Humidity;BMP_temperature;BMP_pressure;BME280_temperature;BME280_humidity;BME280_pressure;Samples;Min_cycle;Max_cycle;Signal;HPM_P1;HPM_P2
2022/07/14 00:02:11;;;;;;;0.10;0.10;;;;;;;;;;5051606;28;20033;-72
2022/07/14 00:04:37;;;;;;;0.20;0.20;;;;;;;;;;5052192;28;20044;-72
2022/07/14 00:07:02;;;;;;;0.20;0.20;;;;;;;;;;5052263;28;20052;-71
2022/07/14 00:09:28;;;;;;;0.20;0.20;;;;;;;;;;5052319;28;20029;-73
2022/07/14 00:11:53;;;;;;;0.20;0.20;;;;;;;;;;5052395;28;20041;-73
2022/07/14 00:14:18;;;;;;;0.30;0.30;;;;;;;;;;5051731;28;20032;-72
2022/07/14 00:16:44;;;;;;;0.20;0.20;;;;;;;;;;5052348;28;20566;-72
2022/07/14 00:19:10;;;;;;;0.20;0.20;;;;;;;;;;5052038;28;20062;-72
2022/07/14 00:21:36;;;;;;;0.20;0.20;;;;;;;;;;5034413;28;20403;-72
2022/07/14 00:24:01;;;;;;;36.72;2.72;;;;;;;;;;5052218;28;20091;-71
2022/07/14 00:26:27;;;;;;;0.20;0.20;;;;;;;;;;5052148;28;20094;-71
2022/07/14 00:28:52;;;;;;;0.20;0.20;;;;;;;;;;5051918;28;20499;-72
2022/07/14 00:31:18;;;;;;;0.20;0.20;;;;;;;;;;5050549;28;20029;-72
2022/07/14 00:33:43;;;;;;;0.20;0.20;;;;;;;;;;5051891;28;20056;-72
2022/07/14 00:36:09;;;;;;;0.20;0.20;;;;;;;;;;5034209;28;20045;-72
2022/07/14 00:38:37;;;;;;;0.10;0.10;;;;;;;;;;5051982;28;20047;-73
2022/07/14 00:41:03;;;;;;;0.20;0.20;;;;;;;;;;5051913;28;20041;-72
2022/07/14 00:43:29;;;;;;;0.20;0.20;;;;;;;;;;5033807;28;20041;-72
2022/07/14 00:45:54;;;;;;;0.20;0.20;;;;;;;;;;5052063;28;20041;-72
2022/07/14 00:48:20;;;;;;;0.20;0.20;;;;;;;;;;5033834;28;20044;-72
2022/07/14 00:50:46;;;;;;;0.85;0.85;;;;;;;;;;5051950;28;20017;-72
2022/07/14 00:53:12;;;;;;;0.20;0.20;;;;;;;;;;5052505;28;20044;-71
2022/07/14 00:55:42;;;;;;;0.20;0.20;;;;;;;;;;5051860;28;20032;-72
2022/07/14 00:58:08;;;;;;;0.20;0.20;;;;;;;;;;5053146;28;20037;-70
2022/07/14 01:00:33;;;;;;;0.20;0.20;;;;;;;;;;5055160;28;20083;-71
2022/07/14 01:02:59;;;;;;;0.20;0.20;;;;;;;;;;5054952;28;20037;-71
2022/07/14 01:05:25;;;;;;;0.20;0.20;;;;;;;;;;5055218;28;20424;-72
2022/07/14 01:07:51;;;;;;;0.30;0.30;;;;;;;;;;5053862;28;20069;-72
2022/07/14 01:10:18;;;;;;;0.20;0.20;;;;;;;;;;5055191;28;20473;-71
2022/07/14 01:12:47;;;;;;;0.20;0.20;;;;;;;;;;5055000;28;20051;-72
2022/07/14 01:15:14;;;;;;;0.20;0.20;;;;;;;;;;5036989;28;20047;-72
2022/07/14 01:17:39;;;;;;;0.20;0.20;;;;;;;;;;5054807;28;20041;-71
2022/07/14 01:20:07;;;;;;;0.20;0.20;;;;;;;;;;5053927;28;20380;-72
2022/07/14 01:22:32;;;;;;;0.40;0.40;;;;;;;;;;5037031;28;20029;-71
2022/07/14 01:24:59;;;;;;;0.43;0.43;;;;;;;;;;5054730;28;20037;-70
2022/07/14 01:27:26;;;;;;;0.28;0.28;;;;;;;;;;5037095;28;20044;-71
2022/07/14 01:29:52;;;;;;;0.20;0.20;;;;;;;;;;5054903;28;20384;-71
2022/07/14 01:32:17;;;;;;;0.82;0.82;;;;;;;;;;5054268;28;20476;-71
2022/07/14 01:34:43;;;;;;;0.20;0.20;;;;;;;;;;5037178;28;20119;-72
2022/07/14 01:37:08;;;;;;;0.20;0.20;;;;;;;;;;5037073;28;20041;-72
2022/07/14 01:39:35;;;;;;;0.20;0.20;;;;;;;;;;5054792;28;20052;-73
2022/07/14 01:42:01;;;;;;;0.20;0.20;;;;;;;;;;5054613;28;20041;-70
2022/07/14 01:44:26;;;;;;;0.20;0.20;;;;;;;;;;5054774;28;20041;-71
2022/07/14 01:46:52;;;;;;;0.20;0.20;;;;;;;;;;5054443;28;20033;-71
2022/07/14 01:49:19;;;;;;;0.20;0.20;;;;;;;;;;5053252;28;20444;-71
2022/07/14 01:51:45;;;;;;;0.20;0.20;;;;;;;;;;5036591;28;20021;-70
2022/07/14 01:54:11;;;;;;;0.20;0.20;;;;;;;;;;5014197;28;20408;-71
2022/07/14 01:56:40;;;;;;;0.20;0.20;;;;;;;;;;5036021;28;20045;-71
2022/07/14 01:59:08;;;;;;;0.20;0.20;;;;;;;;;;5037090;28;20065;-70
2022/07/14 02:01:39;;;;;;;0.20;0.20;;;;;;;;;;5035208;28;20045;-70
2022/07/14 02:04:05;;;;;;;0.20;0.20;;;;;;;;;;5054341;28;20037;-70
2022/07/14 02:06:31;;;;;;;0.20;0.20;;;;;;;;;;5054589;28;20117;-70
2022/07/14 02:08:57;;;;;;;0.30;0.30;;;;;;;;;;5035464;28;20037;-70
2022/07/14 02:14:07;;;;;;;0.20;0.20;;;;;;;;;;5054081;28;20044;-71
2022/07/14 02:16:32;;;;;;;0.10;0.10;;;;;;;;;;5052905;28;20028;-73
2022/07/14 02:18:58;;;;;;;0.20;0.20;;;;;;;;;;5052633;28;20484;-73
2022/07/14 02:21:26;;;;;;;0.17;0.17;;;;;;;;;;5052589;28;20044;-73
2022/07/14 02:24:05;;;;;;;0.65;0.65;;;;;;;;;;5054150;28;20045;-73
2022/07/14 02:26:31;;;;;;;0.20;0.20;;;;;;;;;;5018865;28;20041;-71
2022/07/14 02:28:57;;;;;;;1.13;1.08;;;;;;;;;;5035934;28;20053;-71
2022/07/14 02:31:28;;;;;;;0.20;0.20;;;;;;;;;;5036175;28;20444;-72
2022/07/14 02:33:54;;;;;;;0.20;0.20;;;;;;;;;;5053884;28;20041;-71
2022/07/14 02:36:19;;;;;;;0.20;0.20;;;;;;;;;;5052636;28;20029;-72
2022/07/14 02:38:45;;;;;;;0.20;0.20;;;;;;;;;;5036020;28;20048;-72
2022/07/14 02:41:11;;;;;;;0.20;0.20;;;;;;;;;;5053111;28;20553;-73
2022/07/14 02:43:36;;;;;;;0.30;0.30;;;;;;;;;;5051930;28;20600;-73
2022/07/14 02:46:04;;;;;;;0.10;0.10;;;;;;;;;;5035444;28;20036;-72
2022/07/14 02:48:30;;;;;;;9.95;3.60;;;;;;;;;;5035593;28;20120;-72
2022/07/14 02:51:06;;;;;;;0.20;0.20;;;;;;;;;;5035778;28;20536;-72
2022/07/14 02:53:34;;;;;;;0.20;0.20;;;;;;;;;;5051596;28;20045;-73
2022/07/14 02:55:59;;;;;;;0.17;0.17;;;;;;;;;;5034986;28;20087;-73
2022/07/14 02:58:25;;;;;;;0.20;0.20;;;;;;;;;;5052323;28;20041;-72
2022/07/14 03:00:51;;;;;;;0.20;0.20;;;;;;;;;;5035458;28;20033;-73
2022/07/14 03:03:17;;;;;;;0.20;0.20;;;;;;;;;;5049285;28;20041;-73
2022/07/14 03:05:43;;;;;;;0.30;0.30;;;;;;;;;;5047497;28;20036;-73
2022/07/14 03:08:10;;;;;;;0.20;0.20;;;;;;;;;;5049320;28;20114;-72
2022/07/14 03:10:35;;;;;;;0.22;0.22;;;;;;;;;;5031316;28;20052;-72
2022/07/14 03:13:01;;;;;;;0.20;0.20;;;;;;;;;;5049561;28;20538;-72
2022/07/14 03:15:27;;;;;;;0.20;0.20;;;;;;;;;;5030913;28;20123;-72
2022/07/14 03:17:53;;;;;;;0.17;0.17;;;;;;;;;;5049377;28;20033;-71
2022/07/14 03:20:19;;;;;;;0.20;0.20;;;;;;;;;;5014496;28;20480;-72
2022/07/14 03:22:45;;;;;;;0.20;0.20;;;;;;;;;;5048206;28;20389;-71
2022/07/14 03:25:17;;;;;;;0.20;0.20;;;;;;;;;;5048750;28;20040;-74
2022/07/14 03:27:46;;;;;;;0.20;0.20;;;;;;;;;;5030699;28;20033;-72
2022/07/14 03:30:13;;;;;;;0.20;0.20;;;;;;;;;;5048084;28;20047;-72
2022/07/14 03:32:39;;;;;;;0.10;0.10;;;;;;;;;;5048682;28;20127;-71
2022/07/14 03:35:07;;;;;;;0.30;0.30;;;;;;;;;;5048890;28;20032;-71
2022/07/14 03:37:39;;;;;;;0.20;0.20;;;;;;;;;;5014454;28;20044;-71
2022/07/14 03:40:06;;;;;;;0.20;0.20;;;;;;;;;;5031029;28;20037;-73
2022/07/14 03:42:32;;;;;;;0.20;0.20;;;;;;;;;;5030916;28;20044;-71
2022/07/14 03:44:58;;;;;;;0.20;0.20;;;;;;;;;;5026503;28;20040;-71
2022/07/14 03:47:24;;;;;;;0.20;0.20;;;;;;;;;;5027195;28;20045;-73
2022/07/14 03:49:50;;;;;;;4.13;3.80;;;;;;;;;;5027384;28;20029;-72
2022/07/14 03:52:16;;;;;;;1.25;1.25;;;;;;;;;;5010882;28;20030;-72
2022/07/14 03:54:45;;;;;;;5.53;2.70;;;;;;;;;;5027698;28;20106;-71
2022/07/14 03:57:12;;;;;;;0.20;0.20;;;;;;;;;;5043169;28;20171;-71
2022/07/14 03:59:40;;;;;;;0.10;0.10;;;;;;;;;;5046615;28;20072;-71
2022/07/14 04:02:08;;;;;;;0.47;0.47;;;;;;;;;;5026588;28;20045;-72
2022/07/14 04:04:33;;;;;;;0.20;0.20;;;;;;;;;;5043286;28;20033;-71
2022/07/14 04:06:59;;;;;;;0.30;0.30;;;;;;;;;;5034347;28;20040;-73
2022/07/14 04:09:25;;;;;;;0.20;0.20;;;;;;;;;;5052131;28;20083;-71
2022/07/14 04:11:52;;;;;;;0.20;0.20;;;;;;;;;;5030467;28;20044;-73
2022/07/14 04:14:18;;;;;;;0.20;0.20;;;;;;;;;;5045770;28;20369;-70
2022/07/14 04:16:43;;;;;;;0.20;0.20;;;;;;;;;;5050134;28;20087;-70
2022/07/14 04:19:11;;;;;;;0.43;0.43;;;;;;;;;;5030640;28;20123;-70
2022/07/14 04:21:40;;;;;;;1.47;1.37;;;;;;;;;;5047899;28;20565;-71
2022/07/14 04:24:05;;;;;;;0.75;0.75;;;;;;;;;;5048497;28;20025;-73
2022/07/14 04:26:31;;;;;;;0.10;0.10;;;;;;;;;;5030224;28;20041;-71
2022/07/14 04:28:56;;;;;;;0.20;0.20;;;;;;;;;;5047587;28;20041;-71
2022/07/14 04:31:23;;;;;;;0.20;0.20;;;;;;;;;;5046827;28;20033;-71
2022/07/14 04:33:48;;;;;;;0.20;0.20;;;;;;;;;;5049559;28;20447;-73
2022/07/14 04:36:15;;;;;;;0.30;0.30;;;;;;;;;;5049410;28;20175;-72
2022/07/14 04:38:41;;;;;;;0.20;0.20;;;;;;;;;;5048782;28;20863;-70
2022/07/14 04:41:07;;;;;;;0.20;0.20;;;;;;;;;;5049592;28;20611;-70
2022/07/14 04:43:36;;;;;;;;;;;;;;;;;;5049015;28;20884;-70
2022/07/14 04:46:03;;;;;;;0.10;0.10;;;;;;;;;;5030849;28;19919;-71
2022/07/14 04:52:01;;;;;;;0.20;0.20;;;;;;;;;;5016319;28;20163;-70
2022/07/14 04:54:01;;;;;;;0.20;0.20;;;;;;;;;;5031630;28;20241;-70
2022/07/14 04:56:43;;;;;;;0.20;0.20;;;;;;;;;;5046760;28;20037;-70
2022/07/14 04:59:16;;;;;;;0.20;0.20;;;;;;;;;;5028421;28;20485;-71
2022/07/14 05:01:41;;;;;;;0.10;0.10;;;;;;;;;;5024382;28;20048;-71
2022/07/14 05:04:08;;;;;;;0.20;0.20;;;;;;;;;;5049601;28;20033;-70
2022/07/14 05:06:35;;;;;;;0.20;0.20;;;;;;;;;;5031585;28;20377;-71
2022/07/14 05:09:02;;;;;;;0.20;0.20;;;;;;;;;;5011965;28;20049;-73
2022/07/14 05:11:28;;;;;;;0.20;0.20;;;;;;;;;;5040011;28;20029;-70
2022/07/14 05:13:54;;;;;;;0.20;0.20;;;;;;;;;;5033277;28;20045;-72
2022/07/14 05:16:20;;;;;;;0.20;0.20;;;;;;;;;;5029205;28;20032;-70
2022/07/14 05:18:46;;;;;;;0.25;0.25;;;;;;;;;;5031137;28;20038;-70
2022/07/14 05:21:12;;;;;;;0.20;0.20;;;;;;;;;;5013440;28;20040;-70
2022/07/14 05:23:38;;;;;;;0.63;0.63;;;;;;;;;;5037504;28;20087;-73
2022/07/14 05:26:08;;;;;;;0.20;0.20;;;;;;;;;;5017533;28;20064;-71
2022/07/14 05:28:34;;;;;;;0.20;0.20;;;;;;;;;;5015805;28;20390;-72
2022/07/14 05:31:02;;;;;;;0.20;0.20;;;;;;;;;;5050725;28;20031;-71
2022/07/14 05:33:48;;;;;;;0.20;0.20;;;;;;;;;;5032972;28;20485;-72
2022/07/14 05:36:14;;;;;;;0.50;0.50;;;;;;;;;;5050689;28;20115;-72
2022/07/14 05:38:40;;;;;;;0.20;0.20;;;;;;;;;;5049503;28;20037;-72
2022/07/14 05:41:07;;;;;;;0.20;0.20;;;;;;;;;;5028772;28;20083;-72
2022/07/14 05:43:32;;;;;;;0.20;0.20;;;;;;;;;;5015885;28;20033;-72
2022/07/14 05:46:06;;;;;;;0.20;0.20;;;;;;;;;;5031062;28;20057;-72
2022/07/14 05:48:32;;;;;;;0.30;0.30;;;;;;;;;;5036799;28;20040;-71
2022/07/14 05:51:07;;;;;;;1.55;1.45;;;;;;;;;;5032001;28;20037;-72
2022/07/14 05:53:35;;;;;;;0.28;0.28;;;;;;;;;;5044599;28;20118;-71
2022/07/14 05:56:03;;;;;;;0.20;0.20;;;;;;;;;;5042155;28;20041;-71
2022/07/14 05:58:29;;;;;;;0.20;0.20;;;;;;;;;;5020801;28;20043;-70
2022/07/14 06:00:55;;;;;;;0.20;0.20;;;;;;;;;;5030646;28;20029;-71
2022/07/14 06:03:20;;;;;;;0.20;0.20;;;;;;;;;;5043236;28;20087;-71
2022/07/14 06:05:47;;;;;;;0.20;0.20;;;;;;;;;;5013303;28;20082;-72
2022/07/14 06:08:13;;;;;;;0.20;0.20;;;;;;;;;;5030782;28;20108;-71
2022/07/14 06:10:39;;;;;;;0.20;0.20;;;;;;;;;;5012898;28;20128;-71
2022/07/14 06:13:06;;;;;;;0.20;0.20;;;;;;;;;;5012695;28;20488;-73
2022/07/14 06:15:32;;;;;;;0.85;0.85;;;;;;;;;;5043396;28;20028;-72
2022/07/14 06:17:58;;;;;;;0.22;0.22;;;;;;;;;;5055860;28;20063;-72
2022/07/14 06:20:24;;;;;;;0.25;0.25;;;;;;;;;;5031463;28;20029;-70
2022/07/14 06:22:51;;;;;;;0.20;0.20;;;;;;;;;;5045847;28;20045;-70
2022/07/14 06:25:16;;;;;;;0.43;0.40;;;;;;;;;;5047241;28;20043;-71
2022/07/14 06:27:43;;;;;;;0.30;0.30;;;;;;;;;;5032641;28;20033;-71
2022/07/14 06:30:10;;;;;;;0.20;0.20;;;;;;;;;;5032760;28;20037;-71
2022/07/14 06:32:41;;;;;;;;;;;;;;;;;;5028024;28;20428;-71
2022/07/14 06:35:11;;;;;;;0.20;0.20;;;;;;;;;;5018584;28;20704;-69
2022/07/14 06:37:38;;;;;;;0.20;0.20;;;;;;;;;;5024710;28;20033;-72
2022/07/14 06:40:05;;;;;;;0.30;0.30;;;;;;;;;;5031173;28;20136;-72
2022/07/14 06:42:33;;;;;;;0.20;0.20;;;;;;;;;;5028382;28;20033;-71
2022/07/14 06:45:11;;;;;;;0.30;0.30;;;;;;;;;;5015694;28;20040;-70
2022/07/14 06:47:37;;;;;;;0.30;0.30;;;;;;;;;;5046423;28;20063;-71
2022/07/14 06:50:03;;;;;;;0.30;0.30;;;;;;;;;;5048504;28;20064;-71
2022/07/14 06:52:30;;;;;;;0.30;0.30;;;;;;;;;;5031987;28;20033;-73
2022/07/14 06:54:58;;;;;;;0.20;0.20;;;;;;;;;;5049290;28;20529;-73
2022/07/14 06:57:25;;;;;;;0.22;0.22;;;;;;;;;;5041472;28;20417;-73
2022/07/14 06:59:51;;;;;;;0.38;0.38;;;;;;;;;;5036287;28;20064;-72
2022/07/14 07:02:19;;;;;;;0.22;0.22;;;;;;;;;;5047268;28;20496;-72
2022/07/14 07:04:46;;;;;;;0.20;0.20;;;;;;;;;;5019126;28;20064;-71
2022/07/14 07:07:12;;;;;;;0.30;0.30;;;;;;;;;;5026142;28;20040;-72
2022/07/14 07:09:38;;;;;;;0.32;0.32;;;;;;;;;;5046164;28;20033;-73
2022/07/14 07:12:04;;;;;;;0.32;0.32;;;;;;;;;;5048146;28;20076;-72
2022/07/14 07:14:30;;;;;;;0.30;0.30;;;;;;;;;;5048549;28;20041;-71
2022/07/14 07:16:56;;;;;;;0.30;0.30;;;;;;;;;;5047828;28;20037;-72
2022/07/14 07:19:21;;;;;;;0.22;0.22;;;;;;;;;;5047107;28;20033;-73
2022/07/14 07:21:47;;;;;;;0.22;0.22;;;;;;;;;;5048275;28;20041;-72
2022/07/14 07:24:14;;;;;;;0.30;0.30;;;;;;;;;;5047984;28;20488;-72
2022/07/14 07:26:41;;;;;;;0.28;0.28;;;;;;;;;;5047644;28;20028;-73
2022/07/14 07:29:07;;;;;;;0.50;0.50;;;;;;;;;;5047078;28;20389;-72
2022/07/14 07:31:33;;;;;;;0.32;0.32;;;;;;;;;;5045435;28;20037;-73
2022/07/14 07:34:00;;;;;;;0.30;0.30;;;;;;;;;;5048991;28;20044;-72
2022/07/14 07:36:26;;;;;;;0.32;0.32;;;;;;;;;;5048985;28;20040;-73
2022/07/14 07:38:52;;;;;;;0.40;0.40;;;;;;;;;;5049057;28;20124;-73
2022/07/14 07:41:18;;;;;;;0.20;0.20;;;;;;;;;;5047339;28;20485;-73
2022/07/14 07:43:43;;;;;;;0.70;0.50;;;;;;;;;;5047881;28;20072;-71
2022/07/14 07:46:15;;;;;;;0.40;0.40;;;;;;;;;;5048085;28;20112;-72
2022/07/14 07:48:42;;;;;;;0.30;0.30;;;;;;;;;;5048642;28;20443;-74
2022/07/14 07:51:10;;;;;;;0.30;0.30;;;;;;;;;;5031076;28;20408;-72
2022/07/14 07:53:36;;;;;;;0.30;0.30;;;;;;;;;;5048344;28;20481;-72
2022/07/14 07:56:01;;;;;;;0.30;0.30;;;;;;;;;;5048189;28;20048;-73
2022/07/14 07:58:27;;;;;;;0.30;0.30;;;;;;;;;;5048128;28;20032;-74
2022/07/14 08:00:52;;;;;;;1.23;0.50;;;;;;;;;;5047363;28;20045;-73
2022/07/14 08:03:18;;;;;;;0.57;0.57;;;;;;;;;;5043867;28;20086;-74
2022/07/14 08:05:43;;;;;;;0.30;0.30;;;;;;;;;;5043550;28;20037;-72
2022/07/14 08:08:09;;;;;;;0.43;0.43;;;;;;;;;;5041624;28;20044;-74
2022/07/14 08:10:38;;;;;;;0.32;0.32;;;;;;;;;;5028842;28;20037;-71
2022/07/14 08:13:04;;;;;;;0.40;0.40;;;;;;;;;;5047864;28;20065;-74
2022/07/14 08:15:30;;;;;;;0.40;0.40;;;;;;;;;;5046725;28;20048;-74
2022/07/14 08:17:55;;;;;;;0.35;0.35;;;;;;;;;;5036604;28;20087;-75
2022/07/14 08:20:21;;;;;;;0.40;0.40;;;;;;;;;;5042787;28;20045;-73
2022/07/14 08:22:46;;;;;;;0.40;0.40;;;;;;;;;;5047960;28;20499;-74
2022/07/14 08:25:12;;;;;;;0.65;0.50;;;;;;;;;;5046694;28;20494;-72
2022/07/14 08:27:37;;;;;;;0.30;0.30;;;;;;;;;;5048825;28;20041;-72
2022/07/14 08:30:03;;;;;;;0.35;0.35;;;;;;;;;;5047882;28;20182;-73
2022/07/14 08:32:39;;;;;;;0.40;0.40;;;;;;;;;;5047322;28;20048;-73
2022/07/14 08:35:06;;;;;;;0.32;0.32;;;;;;;;;;5045081;28;20074;-72
2022/07/14 08:37:31;;;;;;;0.43;0.43;;;;;;;;;;5047196;28;20107;-74
2022/07/14 08:39:57;;;;;;;0.40;0.40;;;;;;;;;;5039767;28;20119;-73
2022/07/14 08:42:23;;;;;;;0.40;0.40;;;;;;;;;;5046248;28;20041;-73
2022/07/14 08:44:48;;;;;;;0.60;0.60;;;;;;;;;;5045693;28;20100;-73
2022/07/14 08:47:14;;;;;;;0.45;0.45;;;;;;;;;;5044801;28;20032;-74
2022/07/14 08:49:39;;;;;;;0.30;0.30;;;;;;;;;;5046992;28;20469;-72
2022/07/14 08:52:05;;;;;;;0.52;0.52;;;;;;;;;;5047442;28;20044;-73
2022/07/14 08:54:32;;;;;;;0.82;0.60;;;;;;;;;;5040171;28;20293;-73
2022/07/14 08:56:58;;;;;;;0.35;0.35;;;;;;;;;;5025408;28;20051;-74
2022/07/14 08:59:23;;;;;;;0.38;0.38;;;;;;;;;;5032687;28;20676;-74
2022/07/14 09:01:50;;;;;;;3.42;1.17;;;;;;;;;;5041916;28;20037;-72
2022/07/14 09:04:15;;;;;;;2.20;0.88;;;;;;;;;;5026299;28;20031;-73
2022/07/14 09:06:44;;;;;;;0.50;0.50;;;;;;;;;;5044568;28;20041;-73
2022/07/14 09:09:10;;;;;;;;;;;;;;;;;;5033096;28;20124;-74
2022/07/14 09:11:35;;;;;;;0.30;0.30;;;;;;;;;;5046669;28;20051;-72
2022/07/14 09:14:10;;;;;;;0.77;0.77;;;;;;;;;;5047385;28;20049;-73
2022/07/14 09:16:35;;;;;;;0.30;0.30;;;;;;;;;;5047192;28;20512;-69
2022/07/14 09:19:08;;;;;;;0.30;0.30;;;;;;;;;;5048433;28;20124;-68
2022/07/14 09:21:35;;;;;;;1.70;0.60;;;;;;;;;;5050754;28;20037;-67
2022/07/14 09:24:00;;;;;;;0.30;0.30;;;;;;;;;;5016579;28;20090;-68
2022/07/14 09:26:26;;;;;;;0.50;0.50;;;;;;;;;;5050635;28;20099;-67
2022/07/14 09:28:52;;;;;;;0.73;0.73;;;;;;;;;;5050761;28;20114;-69
2022/07/14 09:31:19;;;;;;;0.30;0.30;;;;;;;;;;5050312;28;20036;-68
2022/07/14 09:33:44;;;;;;;1.23;0.80;;;;;;;;;;5065947;28;20077;-67
2022/07/14 09:36:20;;;;;;;0.30;0.30;;;;;;;;;;5050428;28;20087;-72
2022/07/14 09:38:45;;;;;;;0.40;0.40;;;;;;;;;;5050654;28;20087;-71
2022/07/14 09:41:11;;;;;;;0.40;0.40;;;;;;;;;;5032489;28;20594;-70
2022/07/14 09:43:36;;;;;;;0.52;0.52;;;;;;;;;;5050425;28;20388;-69
2022/07/14 09:46:02;;;;;;;0.70;0.70;;;;;;;;;;5049419;28;20041;-67
2022/07/14 09:48:27;;;;;;;0.30;0.30;;;;;;;;;;5037609;28;20064;-69
2022/07/14 09:50:57;;;;;;;0.30;0.30;;;;;;;;;;5028769;28;20055;-67
2022/07/14 09:53:26;;;;;;;0.90;0.75;;;;;;;;;;5006338;28;20036;-67
2022/07/14 09:55:52;;;;;;;0.40;0.40;;;;;;;;;;5042163;28;20032;-68
2022/07/14 09:58:21;;;;;;;0.38;0.38;;;;;;;;;;5032382;28;20048;-68
2022/07/14 10:01:19;;;;;;;0.38;0.38;;;;;;;;;;5050220;28;20033;-68
2022/07/14 10:03:45;;;;;;;0.38;0.38;;;;;;;;;;5038297;28;20045;-68
2022/07/14 10:06:11;;;;;;;0.52;0.52;;;;;;;;;;5050057;28;20048;-68
2022/07/14 10:08:40;;;;;;;0.40;0.40;;;;;;;;;;5050060;28;20028;-68
2022/07/14 10:11:06;;;;;;;0.50;0.50;;;;;;;;;;5048637;28;20492;-69
2022/07/14 10:13:31;;;;;;;0.73;0.73;;;;;;;;;;5047952;28;20488;-69
2022/07/14 10:15:57;;;;;;;0.50;0.50;;;;;;;;;;5047780;28;20033;-68
2022/07/14 10:18:24;;;;;;;0.82;0.70;;;;;;;;;;5043252;28;20052;-68
2022/07/14 10:20:50;;;;;;;0.50;0.50;;;;;;;;;;5027740;28;20495;-68
2022/07/14 10:23:17;;;;;;;0.32;0.32;;;;;;;;;;5047556;28;20087;-70
2022/07/14 10:25:47;;;;;;;1.35;1.17;;;;;;;;;;5030842;28;20139;-68
2022/07/14 10:28:14;;;;;;;0.30;0.30;;;;;;;;;;5048702;28;20443;-69
2022/07/14 10:30:58;;;;;;;0.88;0.80;;;;;;;;;;5046728;28;20086;-69
2022/07/14 10:33:29;;;;;;;0.50;0.50;;;;;;;;;;5047753;28;20048;-69
2022/07/14 10:36:01;;;;;;;0.43;0.43;;;;;;;;;;5023331;28;20032;-69
2022/07/14 10:38:40;;;;;;;0.45;0.45;;;;;;;;;;5047440;28;20437;-67
2022/07/14 10:41:13;;;;;;;0.30;0.30;;;;;;;;;;5029627;28;20166;-68
2022/07/14 10:43:42;;;;;;;1.10;0.60;;;;;;;;;;5032617;28;20075;-68
2022/07/14 10:46:07;;;;;;;0.50;0.50;;;;;;;;;;5016644;28;20656;-67
2022/07/14 10:48:35;;;;;;;0.40;0.40;;;;;;;;;;5050094;28;20115;-71
2022/07/14 10:51:15;;;;;;;0.45;0.45;;;;;;;;;;5049282;28;20037;-68
2022/07/14 10:53:59;;;;;;;0.60;0.60;;;;;;;;;;5047688;28;20534;-68
2022/07/14 10:56:26;;;;;;;0.68;0.68;;;;;;;;;;5049200;28;20116;-70
2022/07/14 10:59:10;;;;;;;0.50;0.50;;;;;;;;;;5031428;28;20441;-68
2022/07/14 11:01:36;;;;;;;0.40;0.40;;;;;;;;;;5048144;28;20484;-69
2022/07/14 11:04:01;;;;;;;0.57;0.57;;;;;;;;;;5049082;28;20047;-71
2022/07/14 11:06:27;;;;;;;0.60;0.60;;;;;;;;;;5044443;28;20043;-69
2022/07/14 11:09:11;;;;;;;3.92;1.38;;;;;;;;;;5044919;28;20028;-68
2022/07/14 11:11:37;;;;;;;0.65;0.65;;;;;;;;;;5028593;28;20844;-68
2022/07/14 11:14:05;;;;;;;0.40;0.40;;;;;;;;;;5043001;28;20029;-69
2022/07/14 11:16:47;;;;;;;1.15;0.60;;;;;;;;;;5030536;28;20177;-67
2022/07/14 11:19:21;;;;;;;0.60;0.60;;;;;;;;;;5048899;28;20566;-69
2022/07/14 11:22:06;;;;;;;0.57;0.57;;;;;;;;;;5048743;28;20079;-69
2022/07/14 11:24:32;;;;;;;0.50;0.50;;;;;;;;;;5048204;28;20076;-70
2022/07/14 11:27:17;;;;;;;0.65;0.63;;;;;;;;;;5048924;28;20069;-69
2022/07/14 11:29:43;;;;;;;0.40;0.40;;;;;;;;;;5048457;28;20033;-69
2022/07/14 11:32:27;;;;;;;0.38;0.38;;;;;;;;;;5026553;28;20374;-71
2022/07/14 11:37:55;;;;;;;0.63;0.50;;;;;;;;;;5047630;28;20144;-70
2022/07/14 11:40:40;;;;;;;0.75;0.57;;;;;;;;;;5045969;28;20025;-72
2022/07/14 11:43:25;;;;;;;0.35;0.35;;;;;;;;;;5047975;28;20056;-69
2022/07/14 11:45:58;;;;;;;0.50;0.50;;;;;;;;;;5045979;28;20035;-72
2022/07/14 11:48:32;;;;;;;0.50;0.50;;;;;;;;;;5047886;28;20044;-70
2022/07/14 11:51:02;;;;;;;0.30;0.30;;;;;;;;;;5048068;28;20100;-69
2022/07/14 11:53:28;;;;;;;0.40;0.40;;;;;;;;;;5029983;28;20087;-70
2022/07/14 11:55:54;;;;;;;1.35;1.25;;;;;;;;;;5047704;28;20435;-72
2022/07/14 11:58:23;;;;;;;1.42;1.02;;;;;;;;;;5047008;28;20041;-73
2022/07/14 12:00:52;;;;;;;0.52;0.52;;;;;;;;;;5001181;28;20104;-72
2022/07/14 12:03:18;;;;;;;0.40;0.40;;;;;;;;;;5023892;28;20029;-70
2022/07/14 12:05:43;;;;;;;2.88;1.30;;;;;;;;;;5043447;28;20561;-71
2022/07/14 12:08:09;;;;;;;1.17;0.88;;;;;;;;;;5027879;28;20035;-71
2022/07/14 12:10:36;;;;;;;1.50;1.40;;;;;;;;;;5046274;28;20085;-73
2022/07/14 12:13:03;;;;;;;0.70;0.70;;;;;;;;;;5027201;28;20041;-73
2022/07/14 12:15:29;;;;;;;0.60;0.60;;;;;;;;;;5027666;28;20455;-71
2022/07/14 12:17:55;;;;;;;0.80;0.50;;;;;;;;;;5028176;28;20090;-71
2022/07/14 12:20:22;;;;;;;0.80;0.80;;;;;;;;;;5028085;28;20443;-72
2022/07/14 12:22:52;;;;;;;0.47;0.47;;;;;;;;;;5027628;28;20040;-73
2022/07/14 12:25:31;;;;;;;1.20;0.90;;;;;;;;;;5027992;28;20703;-72
2022/07/14 12:27:56;;;;;;;;;;;;;;;;;;5045693;28;20036;-72
2022/07/14 12:30:23;;;;;;;0.85;0.82;;;;;;;;;;5043240;28;20430;-71
2022/07/14 12:32:53;;;;;;;1.10;0.90;;;;;;;;;;5044094;28;20028;-71
2022/07/14 12:35:19;;;;;;;0.50;0.50;;;;;;;;;;5045445;28;20037;-73
2022/07/14 12:37:45;;;;;;;0.77;0.77;;;;;;;;;;5055665;28;20033;-71
2022/07/14 12:40:12;;;;;;;1.40;0.80;;;;;;;;;;5060819;28;20036;-70
2022/07/14 12:42:37;;;;;;;0.30;0.30;;;;;;;;;;5060340;28;20037;-71
2022/07/14 12:45:04;;;;;;;0.60;0.60;;;;;;;;;;5048089;28;20477;-70
2022/07/14 12:47:29;;;;;;;0.82;0.80;;;;;;;;;;5044367;28;20090;-70
2022/07/14 12:49:55;;;;;;;0.50;0.50;;;;;;;;;;5040817;28;20033;-70
2022/07/14 12:52:21;;;;;;;0.50;0.50;;;;;;;;;;5040617;28;20046;-73
2022/07/14 12:54:46;;;;;;;0.77;0.73;;;;;;;;;;5046164;28;20501;-69
2022/07/14 12:57:23;;;;;;;1.25;1.10;;;;;;;;;;5047036;28;20029;-71
2022/07/14 12:59:49;;;;;;;1.08;0.68;;;;;;;;;;5045410;28;20062;-71
2022/07/14 13:02:22;;;;;;;0.40;0.40;;;;;;;;;;5049876;28;20025;-70
2022/07/14 13:04:49;;;;;;;1.25;0.77;;;;;;;;;;5049220;28;20051;-70
2022/07/14 13:07:21;;;;;;;1.27;0.77;;;;;;;;;;5050136;28;20029;-71
2022/07/14 13:10:04;;;;;;;1.42;0.77;;;;;;;;;;5049561;28;20120;-70
2022/07/14 13:12:31;;;;;;;2.42;0.85;;;;;;;;;;5047365;28;20033;-71
2022/07/14 13:15:00;;;;;;;0.32;0.32;;;;;;;;;;5047319;28;20035;-70
2022/07/14 13:17:44;;;;;;;0.40;0.40;;;;;;;;;;5046028;28;20529;-72
2022/07/14 13:20:29;;;;;;;0.63;0.50;;;;;;;;;;5045915;28;20040;-70
2022/07/14 13:22:55;;;;;;;0.50;0.50;;;;;;;;;;5045399;28;20033;-72
2022/07/14 13:25:20;;;;;;;2.20;1.42;;;;;;;;;;5046285;28;20075;-71
2022/07/14 13:27:46;;;;;;;0.52;0.52;;;;;;;;;;5047666;28;20423;-70
2022/07/14 13:30:12;;;;;;;1.00;0.90;;;;;;;;;;5047204;28;20059;-71
2022/07/14 13:32:37;;;;;;;0.65;0.65;;;;;;;;;;5048497;28;20036;-70
2022/07/14 13:35:03;;;;;;;0.63;0.63;;;;;;;;;;5048601;28;20063;-70
2022/07/14 13:37:28;;;;;;;1.02;0.80;;;;;;;;;;5048354;28;20416;-71
2022/07/14 13:39:54;;;;;;;1.30;1.13;;;;;;;;;;5048480;28;20041;-70
2022/07/14 13:42:19;;;;;;;0.40;0.40;;;;;;;;;;5030707;28;20033;-71
2022/07/14 13:44:45;;;;;;;1.05;0.95;;;;;;;;;;5049050;28;20144;-70
2022/07/14 13:47:10;;;;;;;0.95;0.90;;;;;;;;;;5048320;28;20545;-72
2022/07/14 13:52:24;;;;;;;0.93;0.85;;;;;;;;;;5045236;28;20095;-74
2022/07/14 13:54:50;;;;;;;2.88;1.35;;;;;;;;;;5048879;28;20423;-71
2022/07/14 13:57:15;;;;;;;2.00;0.80;;;;;;;;;;5048006;28;20064;-70
2022/07/14 13:59:42;;;;;;;0.98;0.85;;;;;;;;;;5047381;28;20032;-72
2022/07/14 14:02:07;;;;;;;0.65;0.65;;;;;;;;;;5026209;28;20071;-74
2022/07/14 14:04:33;;;;;;;2.72;1.20;;;;;;;;;;5030475;28;20425;-70
2022/07/14 14:06:59;;;;;;;16.02;1.50;;;;;;;;;;5047430;28;20059;-71
2022/07/14 14:09:27;;;;;;;0.88;0.88;;;;;;;;;;5048301;28;20033;-70
2022/07/14 14:11:53;;;;;;;1.00;0.93;;;;;;;;;;5047839;28;20031;-70
2022/07/14 14:14:18;;;;;;;0.70;0.70;;;;;;;;;;5046889;28;20032;-72
2022/07/14 14:16:44;;;;;;;1.83;0.93;;;;;;;;;;5048333;28;20033;-71
2022/07/14 14:19:09;;;;;;;1.50;1.27;;;;;;;;;;5048442;28;20055;-71
2022/07/14 14:21:35;;;;;;;0.77;0.73;;;;;;;;;;5046460;28;20037;-73
2022/07/14 14:24:00;;;;;;;4.65;4.35;;;;;;;;;;5044661;28;20025;-70
2022/07/14 14:26:26;;;;;;;1.02;0.80;;;;;;;;;;5011471;28;20614;-72
2022/07/14 14:28:52;;;;;;;0.57;0.57;;;;;;;;;;5046582;28;20037;-70
2022/07/14 14:31:17;;;;;;;0.90;0.82;;;;;;;;;;5045404;28;20107;-74
2022/07/14 14:33:42;;;;;;;0.30;0.30;;;;;;;;;;5046095;28;20041;-71
2022/07/14 14:36:08;;;;;;;0.35;0.35;;;;;;;;;;5045895;28;20052;-70
2022/07/14 14:38:34;;;;;;;0.40;0.40;;;;;;;;;;5046337;28;20032;-74
2022/07/14 14:40:59;;;;;;;0.70;0.70;;;;;;;;;;5046282;28;20036;-71
2022/07/14 14:43:25;;;;;;;0.40;0.40;;;;;;;;;;5046182;28;20051;-70
2022/07/14 14:45:50;;;;;;;0.40;0.40;;;;;;;;;;5047807;28;20102;-70
2022/07/14 14:48:17;;;;;;;0.50;0.50;;;;;;;;;;5047444;28;20033;-72
2022/07/14 14:50:43;;;;;;;1.48;1.17;;;;;;;;;;5048525;28;20045;-71
2022/07/14 14:53:09;;;;;;;0.63;0.63;;;;;;;;;;5047433;28;20396;-71
2022/07/14 14:55:34;;;;;;;0.30;0.30;;;;;;;;;;5044680;28;20045;-70
2022/07/14 14:57:59;;;;;;;1.17;1.08;;;;;;;;;;5037879;28;20476;-70